LIMC/MXP METAR and TAF weather

Enter ICAO airport designator
Station Type Date Time Source
LIMC METAR 2020/07/14 23:20 UTC NOAA

LIMC 142320Z 36007KT CAVOK 20/15 Q1014 NOSIG


Station Type Date Time Source
LIMC Decoded METAR 2020/07/14 23:20 UTC NOAA

Milano / Malpensa, Italy (LIMC) 45-37N 008-44E 211M
Jul 14, 2020 - 07:20 PM EDT / 2020.07.14 2320 UTC
Wind: from the N (360 degrees) at 8 MPH (7 KT):0
Visibility: greater than 7 mile(s):0
Temperature: 68 F (20 C)
Dew Point: 59 F (15 C)
Relative Humidity: 72%
Pressure (altimeter): 29.94 in. Hg (1014 hPa)
ob: LIMC 142320Z 36007KT CAVOK 20/15 Q1014 NOSIG
cycle: 23

Station Type Date Time Source
LIMC TAF 2020/07/14 18:24 UTC NOAA

TAF LIMC 141700Z 1418/1524 VRB05KT 9999 SCT060 PROB30
TEMPO 1514/1520 TSRA

Example: see airport list